sensor_id;sensor_type;location;lat;lon;timestamp;pressure;altitude;pressure_sealevel;temperature;humidity
51227;BME280;42714;48.260;10.980;2023-06-26T00:02:47;971.0;;;20.8;77.3
51227;BME280;42714;48.260;10.980;2023-06-26T00:07:48;971.0;;;20.6;77.9
51227;BME280;42714;48.260;10.980;2023-06-26T00:12:49;971.0;;;20.6;78.4
51227;BME280;42714;48.260;10.980;2023-06-26T00:17:50;971.1;;;20.5;83.8
51227;BME280;42714;48.260;10.980;2023-06-26T00:22:51;971.1;;;20.3;88.2
51227;BME280;42714;48.260;10.980;2023-06-26T00:27:52;971.1;;;20.3;88.7
51227;BME280;42714;48.260;10.980;2023-06-26T00:32:53;971.1;;;20.4;89.7
51227;BME280;42714;48.260;10.980;2023-06-26T00:37:54;971.1;;;20.2;93.5
51227;BME280;42714;48.260;10.980;2023-06-26T00:42:55;971.0;;;19.8;97.8
51227;BME280;42714;48.260;10.980;2023-06-26T00:47:56;971.1;;;19.6;100.0
51227;BME280;42714;48.260;10.980;2023-06-26T00:52:57;971.1;;;19.5;100.0
51227;BME280;42714;48.260;10.980;2023-06-26T00:57:58;971.1;;;19.4;100.0
51227;BME280;42714;48.260;10.980;2023-06-26T01:02:58;971.1;;;19.3;100.0
51227;BME280;42714;48.260;10.980;2023-06-26T01:07:59;971.0;;;19.3;100.0
51227;BME280;42714;48.260;10.980;2023-06-26T01:13:00;971.0;;;19.1;100.0
51227;BME280;42714;48.260;10.980;2023-06-26T01:18:01;971.0;;;18.9;100.0
51227;BME280;42714;48.260;10.980;2023-06-26T01:23:06;971.0;;;18.6;100.0
51227;BME280;42714;48.260;10.980;2023-06-26T01:28:03;970.9;;;18.6;100.0
51227;BME280;42714;48.260;10.980;2023-06-26T01:33:04;970.9;;;18.8;100.0
51227;BME280;42714;48.260;10.980;2023-06-26T01:43:08;970.8;;;18.9;100.0
51227;BME280;42714;48.260;10.980;2023-06-26T01:48:07;970.8;;;19.0;100.0
51227;BME280;42714;48.260;10.980;2023-06-26T01:53:10;970.8;;;19.1;100.0
51227;BME280;42714;48.260;10.980;2023-06-26T01:58:09;970.8;;;19.1;100.0
51227;BME280;42714;48.260;10.980;2023-06-26T02:03:10;970.8;;;19.2;100.0
51227;BME280;42714;48.260;10.980;2023-06-26T02:08:13;970.7;;;19.2;100.0
51227;BME280;42714;48.260;10.980;2023-06-26T02:13:12;970.8;;;19.2;100.0
51227;BME280;42714;48.260;10.980;2023-06-26T02:18:13;970.8;;;19.3;99.0
51227;BME280;42714;48.260;10.980;2023-06-26T02:23:14;970.8;;;19.2;97.2
51227;BME280;42714;48.260;10.980;2023-06-26T02:28:15;970.9;;;19.1;96.8
51227;BME280;42714;48.260;10.980;2023-06-26T02:33:16;970.8;;;19.1;96.8
51227;BME280;42714;48.260;10.980;2023-06-26T02:38:18;970.9;;;18.9;96.8
51227;BME280;42714;48.260;10.980;2023-06-26T02:43:18;970.9;;;18.7;99.5
51227;BME280;42714;48.260;10.980;2023-06-26T02:48:19;970.9;;;18.6;100.0
51227;BME280;42714;48.260;10.980;2023-06-26T02:53:20;970.9;;;18.6;100.0
51227;BME280;42714;48.260;10.980;2023-06-26T02:58:21;970.9;;;18.7;100.0
51227;BME280;42714;48.260;10.980;2023-06-26T03:03:22;970.9;;;18.7;100.0
51227;BME280;42714;48.260;10.980;2023-06-26T03:08:23;970.9;;;18.7;100.0
51227;BME280;42714;48.260;10.980;2023-06-26T03:13:24;970.8;;;18.7;100.0
51227;BME280;42714;48.260;10.980;2023-06-26T03:18:26;970.9;;;18.6;100.0
51227;BME280;42714;48.260;10.980;2023-06-26T03:23:26;970.8;;;18.6;100.0
51227;BME280;42714;48.260;10.980;2023-06-26T03:28:27;970.8;;;18.6;100.0
51227;BME280;42714;48.260;10.980;2023-06-26T03:33:28;970.8;;;18.6;100.0
51227;BME280;42714;48.260;10.980;2023-06-26T03:38:29;970.8;;;18.6;100.0
51227;BME280;42714;48.260;10.980;2023-06-26T03:43:30;970.8;;;18.6;100.0
51227;BME280;42714;48.260;10.980;2023-06-26T03:48:31;970.8;;;18.5;100.0
51227;BME280;42714;48.260;10.980;2023-06-26T03:53:33;970.8;;;18.5;99.6
51227;BME280;42714;48.260;10.980;2023-06-26T03:58:33;970.8;;;18.5;99.0
51227;BME280;42714;48.260;10.980;2023-06-26T04:03:34;970.8;;;18.4;99.9
51227;BME280;42714;48.260;10.980;2023-06-26T04:08:35;970.8;;;18.4;98.9
51227;BME280;42714;48.260;10.980;2023-06-26T04:13:36;970.8;;;18.4;100.0
51227;BME280;42714;48.260;10.980;2023-06-26T04:18:37;970.9;;;18.3;99.7
51227;BME280;42714;48.260;10.980;2023-06-26T04:23:39;970.9;;;18.3;100.0
51227;BME280;42714;48.260;10.980;2023-06-26T04:28:40;970.9;;;18.5;99.7
51227;BME280;42714;48.260;10.980;2023-06-26T04:33:40;970.9;;;18.5;100.0
51227;BME280;42714;48.260;10.980;2023-06-26T04:38:41;971.0;;;18.7;100.0
51227;BME280;42714;48.260;10.980;2023-06-26T04:43:42;971.0;;;18.9;100.0
51227;BME280;42714;48.260;10.980;2023-06-26T04:48:43;971.0;;;19.1;100.0
51227;BME280;42714;48.260;10.980;2023-06-26T04:53:44;970.9;;;19.3;100.0
51227;BME280;42714;48.260;10.980;2023-06-26T04:58:45;970.9;;;19.6;100.0
51227;BME280;42714;48.260;10.980;2023-06-26T05:03:46;970.9;;;20.0;100.0
51227;BME280;42714;48.260;10.980;2023-06-26T05:08:47;970.9;;;20.3;100.0
51227;BME280;42714;48.260;10.980;2023-06-26T05:13:49;970.9;;;20.6;100.0
51227;BME280;42714;48.260;10.980;2023-06-26T05:18:50;970.9;;;20.9;100.0
51227;BME280;42714;48.260;10.980;2023-06-26T05:23:51;970.9;;;21.2;97.8
51227;BME280;42714;48.260;10.980;2023-06-26T05:28:52;970.8;;;21.4;95.7
51227;BME280;42714;48.260;10.980;2023-06-26T05:33:53;970.8;;;21.6;95.5
51227;BME280;42714;48.260;10.980;2023-06-26T05:38:54;970.8;;;22.0;94.4
51227;BME280;42714;48.260;10.980;2023-06-26T05:43:55;970.9;;;22.3;93.6
51227;BME280;42714;48.260;10.980;2023-06-26T05:48:56;970.9;;;22.7;90.2
51227;BME280;42714;48.260;10.980;2023-06-26T05:53:57;970.9;;;22.9;89.6
51227;BME280;42714;48.260;10.980;2023-06-26T05:58:58;970.9;;;23.3;83.8
51227;BME280;42714;48.260;10.980;2023-06-26T06:03:59;970.9;;;23.7;78.6
51227;BME280;42714;48.260;10.980;2023-06-26T06:09:00;970.9;;;24.0;76.6
51227;BME280;42714;48.260;10.980;2023-06-26T06:14:01;970.8;;;24.4;72.8
51227;BME280;42714;48.260;10.980;2023-06-26T06:19:02;970.8;;;24.7;67.4
51227;BME280;42714;48.260;10.980;2023-06-26T06:24:03;970.8;;;25.1;64.3
51227;BME280;42714;48.260;10.980;2023-06-26T06:29:04;970.8;;;25.5;63.8
51227;BME280;42714;48.260;10.980;2023-06-26T06:34:06;970.7;;;25.9;61.0
51227;BME280;42714;48.260;10.980;2023-06-26T06:39:07;970.7;;;26.2;57.7
51227;BME280;42714;48.260;10.980;2023-06-26T06:44:08;970.7;;;26.6;55.7
51227;BME280;42714;48.260;10.980;2023-06-26T06:49:09;970.7;;;27.0;54.1
51227;BME280;42714;48.260;10.980;2023-06-26T06:54:10;970.8;;;27.4;52.3
51227;BME280;42714;48.260;10.980;2023-06-26T06:59:11;970.7;;;27.9;49.1
51227;BME280;42714;48.260;10.980;2023-06-26T07:04:12;970.8;;;28.1;45.9
51227;BME280;42714;48.260;10.980;2023-06-26T07:09:13;970.8;;;28.4;46.2
51227;BME280;42714;48.260;10.980;2023-06-26T07:14:14;970.7;;;28.8;45.1
51227;BME280;42714;48.260;10.980;2023-06-26T07:19:15;970.7;;;29.2;44.8
51227;BME280;42714;48.260;10.980;2023-06-26T07:24:16;970.6;;;29.6;43.8
51227;BME280;42714;48.260;10.980;2023-06-26T07:29:17;970.6;;;29.9;44.2
51227;BME280;42714;48.260;10.980;2023-06-26T07:34:18;970.5;;;30.1;43.7
51227;BME280;42714;48.260;10.980;2023-06-26T07:39:19;970.5;;;30.4;42.1
51227;BME280;42714;48.260;10.980;2023-06-26T07:44:20;970.5;;;30.9;41.4
51227;BME280;42714;48.260;10.980;2023-06-26T07:49:21;970.5;;;31.5;39.4
51227;BME280;42714;48.260;10.980;2023-06-26T07:54:22;970.5;;;32.0;37.6
51227;BME280;42714;48.260;10.980;2023-06-26T07:59:23;970.5;;;32.8;37.2
51227;BME280;42714;48.260;10.980;2023-06-26T08:04:24;970.4;;;33.6;33.7
51227;BME280;42714;48.260;10.980;2023-06-26T08:09:25;970.3;;;34.4;33.1
51227;BME280;42714;48.260;10.980;2023-06-26T08:14:26;970.3;;;35.4;30.7
51227;BME280;42714;48.260;10.980;2023-06-26T08:19:27;970.2;;;36.0;29.6
51227;BME280;42714;48.260;10.980;2023-06-26T08:24:28;970.2;;;36.8;28.7
51227;BME280;42714;48.260;10.980;2023-06-26T08:29:29;970.2;;;37.2;27.4
51227;BME280;42714;48.260;10.980;2023-06-26T08:34:30;970.2;;;37.8;26.0
51227;BME280;42714;48.260;10.980;2023-06-26T08:39:31;970.1;;;37.8;25.8
51227;BME280;42714;48.260;10.980;2023-06-26T08:44:32;970.2;;;37.5;26.8
51227;BME280;42714;48.260;10.980;2023-06-26T08:49:34;970.1;;;37.2;26.6
51227;BME280;42714;48.260;10.980;2023-06-26T08:54:34;970.1;;;36.9;27.1
51227;BME280;42714;48.260;10.980;2023-06-26T08:59:35;970.1;;;36.5;27.0
51227;BME280;42714;48.260;10.980;2023-06-26T09:04:36;970.1;;;36.2;27.0
51227;BME280;42714;48.260;10.980;2023-06-26T09:09:37;970.0;;;35.9;26.5
51227;BME280;42714;48.260;10.980;2023-06-26T09:14:38;970.0;;;35.4;27.4
51227;BME280;42714;48.260;10.980;2023-06-26T09:19:39;970.0;;;35.0;28.4
51227;BME280;42714;48.260;10.980;2023-06-26T09:24:42;970.0;;;34.8;28.6
51227;BME280;42714;48.260;10.980;2023-06-26T09:29:41;969.9;;;34.8;28.6
51227;BME280;42714;48.260;10.980;2023-06-26T09:34:42;969.9;;;34.7;28.2
51227;BME280;42714;48.260;10.980;2023-06-26T09:39:43;969.9;;;34.7;28.1
51227;BME280;42714;48.260;10.980;2023-06-26T09:44:44;969.9;;;34.5;28.9
51227;BME280;42714;48.260;10.980;2023-06-26T09:49:45;969.9;;;34.1;28.2
51227;BME280;42714;48.260;10.980;2023-06-26T09:54:46;969.9;;;33.8;29.3
51227;BME280;42714;48.260;10.980;2023-06-26T09:59:47;969.9;;;34.0;29.2
51227;BME280;42714;48.260;10.980;2023-06-26T10:04:48;969.8;;;34.1;29.3
51227;BME280;42714;48.260;10.980;2023-06-26T10:09:49;969.8;;;33.9;29.9
51227;BME280;42714;48.260;10.980;2023-06-26T10:14:50;969.8;;;33.9;29.7
51227;BME280;42714;48.260;10.980;2023-06-26T10:19:51;969.7;;;33.8;30.4
51227;BME280;42714;48.260;10.980;2023-06-26T10:24:52;969.8;;;33.9;30.6
51227;BME280;42714;48.260;10.980;2023-06-26T10:29:54;969.8;;;33.7;30.0
51227;BME280;42714;48.260;10.980;2023-06-26T10:34:54;969.7;;;33.8;30.0
51227;BME280;42714;48.260;10.980;2023-06-26T10:39:59;969.7;;;33.8;30.8
51227;BME280;42714;48.260;10.980;2023-06-26T10:44:56;969.7;;;34.0;31.6
51227;BME280;42714;48.260;10.980;2023-06-26T10:50:15;969.7;;;34.1;29.5
51227;BME280;42714;48.260;10.980;2023-06-26T10:54:58;969.7;;;33.9;29.5
51227;BME280;42714;48.260;10.980;2023-06-26T11:00:08;969.6;;;33.9;29.9
51227;BME280;42714;48.260;10.980;2023-06-26T11:05:00;969.7;;;33.7;30.2
51227;BME280;42714;48.260;10.980;2023-06-26T11:10:08;969.7;;;33.5;29.9
51227;BME280;42714;48.260;10.980;2023-06-26T11:15:03;969.6;;;33.6;30.7
51227;BME280;42714;48.260;10.980;2023-06-26T11:20:04;969.7;;;33.9;30.1
51227;BME280;42714;48.260;10.980;2023-06-26T11:25:05;969.7;;;34.1;28.9
51227;BME280;42714;48.260;10.980;2023-06-26T11:30:06;969.6;;;34.3;28.8
51227;BME280;42714;48.260;10.980;2023-06-26T11:35:06;969.6;;;34.6;29.0
51227;BME280;42714;48.260;10.980;2023-06-26T11:45:08;969.6;;;34.8;29.0
51227;BME280;42714;48.260;10.980;2023-06-26T11:50:14;969.4;;;35.0;28.3
51227;BME280;42714;48.260;10.980;2023-06-26T11:55:10;969.5;;;35.2;28.1
51227;BME280;42714;48.260;10.980;2023-06-26T12:00:12;969.5;;;35.5;28.1
51227;BME280;42714;48.260;10.980;2023-06-26T12:05:13;969.4;;;35.9;27.1
51227;BME280;42714;48.260;10.980;2023-06-26T12:10:13;969.4;;;36.2;26.3
51227;BME280;42714;48.260;10.980;2023-06-26T12:15:15;969.4;;;36.0;26.0
51227;BME280;42714;48.260;10.980;2023-06-26T12:20:17;969.4;;;35.8;26.8
51227;BME280;42714;48.260;10.980;2023-06-26T12:25:22;969.5;;;35.6;26.8
51227;BME280;42714;48.260;10.980;2023-06-26T12:30:17;969.5;;;35.2;27.3
51227;BME280;42714;48.260;10.980;2023-06-26T12:35:18;969.5;;;35.0;28.7
51227;BME280;42714;48.260;10.980;2023-06-26T12:40:19;969.5;;;35.5;27.6
51227;BME280;42714;48.260;10.980;2023-06-26T12:45:20;969.5;;;35.4;26.6
51227;BME280;42714;48.260;10.980;2023-06-26T12:50:21;969.5;;;35.2;27.8
51227;BME280;42714;48.260;10.980;2023-06-26T12:55:22;969.4;;;35.5;27.4
51227;BME280;42714;48.260;10.980;2023-06-26T13:00:23;969.3;;;35.8;27.3
51227;BME280;42714;48.260;10.980;2023-06-26T13:05:24;969.3;;;35.6;27.2
51227;BME280;42714;48.260;10.980;2023-06-26T13:10:25;969.3;;;35.1;27.5
51227;BME280;42714;48.260;10.980;2023-06-26T13:15:26;969.2;;;35.3;27.6
51227;BME280;42714;48.260;10.980;2023-06-26T13:20:27;969.2;;;35.2;27.7
51227;BME280;42714;48.260;10.980;2023-06-26T13:25:28;969.1;;;35.1;27.3
51227;BME280;42714;48.260;10.980;2023-06-26T13:30:29;969.0;;;34.8;27.9
51227;BME280;42714;48.260;10.980;2023-06-26T13:35:30;969.0;;;34.8;28.3
51227;BME280;42714;48.260;10.980;2023-06-26T13:40:31;969.0;;;34.7;27.5
51227;BME280;42714;48.260;10.980;2023-06-26T13:45:32;969.0;;;34.5;27.9
51227;BME280;42714;48.260;10.980;2023-06-26T13:50:33;968.8;;;34.5;27.9
51227;BME280;42714;48.260;10.980;2023-06-26T13:55:34;968.8;;;34.6;27.4
51227;BME280;42714;48.260;10.980;2023-06-26T14:00:35;968.8;;;34.7;26.8
51227;BME280;42714;48.260;10.980;2023-06-26T14:05:36;968.8;;;34.6;27.1
51227;BME280;42714;48.260;10.980;2023-06-26T14:10:37;968.7;;;34.3;27.8
51227;BME280;42714;48.260;10.980;2023-06-26T14:15:38;968.8;;;34.2;27.8
51227;BME280;42714;48.260;10.980;2023-06-26T14:20:39;968.8;;;34.1;28.3
51227;BME280;42714;48.260;10.980;2023-06-26T14:25:40;968.8;;;34.2;28.0
51227;BME280;42714;48.260;10.980;2023-06-26T14:30:41;968.8;;;34.2;28.0
51227;BME280;42714;48.260;10.980;2023-06-26T14:35:42;968.7;;;34.2;28.7
51227;BME280;42714;48.260;10.980;2023-06-26T14:40:43;968.7;;;34.0;28.4
51227;BME280;42714;48.260;10.980;2023-06-26T14:45:44;968.7;;;33.9;28.6
51227;BME280;42714;48.260;10.980;2023-06-26T14:50:45;968.8;;;33.7;29.4
51227;BME280;42714;48.260;10.980;2023-06-26T14:55:46;968.8;;;33.5;29.1
51227;BME280;42714;48.260;10.980;2023-06-26T15:00:47;968.9;;;33.3;30.0
51227;BME280;42714;48.260;10.980;2023-06-26T15:05:48;969.0;;;33.0;30.1
51227;BME280;42714;48.260;10.980;2023-06-26T15:10:49;969.0;;;32.6;32.9
51227;BME280;42714;48.260;10.980;2023-06-26T15:15:50;969.1;;;31.8;36.6
51227;BME280;42714;48.260;10.980;2023-06-26T15:20:51;969.0;;;31.1;39.3
51227;BME280;42714;48.260;10.980;2023-06-26T15:25:52;969.0;;;30.8;40.7
51227;BME280;42714;48.260;10.980;2023-06-26T15:30:53;968.9;;;30.6;42.5
51227;BME280;42714;48.260;10.980;2023-06-26T15:35:54;968.8;;;30.5;42.4
51227;BME280;42714;48.260;10.980;2023-06-26T15:40:55;968.8;;;30.5;43.0
51227;BME280;42714;48.260;10.980;2023-06-26T15:45:56;968.8;;;30.3;44.0
51227;BME280;42714;48.260;10.980;2023-06-26T15:50:57;968.8;;;30.1;44.3
51227;BME280;42714;48.260;10.980;2023-06-26T15:55:58;968.9;;;30.0;44.2
51227;BME280;42714;48.260;10.980;2023-06-26T16:00:59;968.9;;;29.9;44.2
51227;BME280;42714;48.260;10.980;2023-06-26T16:06:00;968.9;;;29.9;44.0
51227;BME280;42714;48.260;10.980;2023-06-26T16:11:01;968.9;;;29.8;45.3
51227;BME280;42714;48.260;10.980;2023-06-26T16:16:02;968.7;;;29.8;45.2
51227;BME280;42714;48.260;10.980;2023-06-26T16:21:03;968.8;;;29.9;46.8
51227;BME280;42714;48.260;10.980;2023-06-26T16:26:04;968.9;;;29.6;54.8
51227;BME280;42714;48.260;10.980;2023-06-26T16:31:05;968.9;;;29.4;61.0
51227;BME280;42714;48.260;10.980;2023-06-26T16:36:06;968.8;;;29.3;64.8
51227;BME280;42714;48.260;10.980;2023-06-26T16:41:08;968.8;;;29.1;68.0
51227;BME280;42714;48.260;10.980;2023-06-26T16:46:08;969.0;;;29.0;70.6
51227;BME280;42714;48.260;10.980;2023-06-26T16:51:09;969.1;;;28.8;73.6
51227;BME280;42714;48.260;10.980;2023-06-26T16:56:10;969.1;;;28.6;76.3
51227;BME280;42714;48.260;10.980;2023-06-26T17:01:11;969.2;;;28.5;80.1
51227;BME280;42714;48.260;10.980;2023-06-26T17:06:12;969.2;;;28.2;82.2
51227;BME280;42714;48.260;10.980;2023-06-26T17:11:13;969.3;;;28.0;83.7
51227;BME280;42714;48.260;10.980;2023-06-26T17:16:14;969.2;;;27.8;87.7
51227;BME280;42714;48.260;10.980;2023-06-26T17:21:15;969.3;;;27.7;90.3
51227;BME280;42714;48.260;10.980;2023-06-26T17:26:16;969.4;;;27.6;93.4
51227;BME280;42714;48.260;10.980;2023-06-26T17:31:17;969.5;;;27.5;95.9
51227;BME280;42714;48.260;10.980;2023-06-26T17:36:18;969.4;;;27.2;95.7
51227;BME280;42714;48.260;10.980;2023-06-26T17:41:19;969.3;;;27.1;96.9
51227;BME280;42714;48.260;10.980;2023-06-26T17:46:20;969.2;;;27.1;98.6
51227;BME280;42714;48.260;10.980;2023-06-26T17:51:21;969.3;;;27.1;100.0
51227;BME280;42714;48.260;10.980;2023-06-26T17:56:22;969.4;;;27.0;100.0
51227;BME280;42714;48.260;10.980;2023-06-26T18:01:23;969.2;;;26.9;100.0
51227;BME280;42714;48.260;10.980;2023-06-26T18:06:24;969.3;;;26.9;100.0
51227;BME280;42714;48.260;10.980;2023-06-26T18:11:25;969.5;;;26.9;100.0
51227;BME280;42714;48.260;10.980;2023-06-26T18:16:26;970.1;;;26.9;100.0
51227;BME280;42714;48.260;10.980;2023-06-26T18:21:27;970.3;;;26.7;100.0
51227;BME280;42714;48.260;10.980;2023-06-26T18:26:28;970.3;;;26.5;100.0
51227;BME280;42714;48.260;10.980;2023-06-26T18:31:29;970.2;;;26.3;98.7
51227;BME280;42714;48.260;10.980;2023-06-26T18:36:30;970.2;;;26.4;92.4
51227;BME280;42714;48.260;10.980;2023-06-26T18:41:31;970.2;;;26.5;86.9
51227;BME280;42714;48.260;10.980;2023-06-26T18:46:32;970.3;;;26.6;81.5
51227;BME280;42714;48.260;10.980;2023-06-26T18:51:33;970.4;;;26.7;82.8
51227;BME280;42714;48.260;10.980;2023-06-26T18:56:34;970.5;;;26.7;85.3
51227;BME280;42714;48.260;10.980;2023-06-26T19:01:35;970.4;;;26.7;85.0
51227;BME280;42714;48.260;10.980;2023-06-26T19:06:36;970.4;;;26.7;85.6
51227;BME280;42714;48.260;10.980;2023-06-26T19:11:37;970.5;;;26.5;89.0
51227;BME280;42714;48.260;10.980;2023-06-26T19:16:38;970.5;;;26.4;90.2
51227;BME280;42714;48.260;10.980;2023-06-26T19:21:39;970.6;;;26.3;92.9
51227;BME280;42714;48.260;10.980;2023-06-26T19:26:40;970.7;;;26.2;96.2
51227;BME280;42714;48.260;10.980;2023-06-26T19:31:41;970.8;;;25.9;100.0
51227;BME280;42714;48.260;10.980;2023-06-26T19:36:42;970.9;;;25.8;100.0
51227;BME280;42714;48.260;10.980;2023-06-26T19:41:43;971.0;;;25.7;100.0
51227;BME280;42714;48.260;10.980;2023-06-26T19:46:44;971.1;;;25.6;98.8
51227;BME280;42714;48.260;10.980;2023-06-26T19:51:46;971.2;;;25.3;97.8
51227;BME280;42714;48.260;10.980;2023-06-26T19:56:46;971.2;;;25.2;96.9
51227;BME280;42714;48.260;10.980;2023-06-26T20:01:47;971.2;;;25.1;93.3
51227;BME280;42714;48.260;10.980;2023-06-26T20:06:48;971.3;;;25.0;92.4
51227;BME280;42714;48.260;10.980;2023-06-26T20:11:49;971.3;;;25.0;89.2
51227;BME280;42714;48.260;10.980;2023-06-26T20:16:50;971.3;;;24.8;88.9
51227;BME280;42714;48.260;10.980;2023-06-26T20:21:52;971.4;;;24.7;88.8
51227;BME280;42714;48.260;10.980;2023-06-26T20:26:52;971.4;;;24.7;87.1
51227;BME280;42714;48.260;10.980;2023-06-26T20:31:53;971.4;;;24.7;84.4
51227;BME280;42714;48.260;10.980;2023-06-26T20:36:54;971.5;;;24.7;81.7
51227;BME280;42714;48.260;10.980;2023-06-26T20:41:56;971.6;;;24.7;80.5
51227;BME280;42714;48.260;10.980;2023-06-26T20:46:57;971.7;;;24.7;80.8
51227;BME280;42714;48.260;10.980;2023-06-26T20:51:58;971.7;;;24.7;77.8
51227;BME280;42714;48.260;10.980;2023-06-26T20:56:58;971.8;;;24.6;73.7
51227;BME280;42714;48.260;10.980;2023-06-26T21:01:59;971.8;;;24.5;66.0
51227;BME280;42714;48.260;10.980;2023-06-26T21:07:00;971.8;;;24.3;62.7
51227;BME280;42714;48.260;10.980;2023-06-26T21:12:02;971.8;;;24.3;62.1
51227;BME280;42714;48.260;10.980;2023-06-26T21:17:03;971.9;;;24.3;58.7
51227;BME280;42714;48.260;10.980;2023-06-26T21:22:04;972.0;;;24.2;56.2
51227;BME280;42714;48.260;10.980;2023-06-26T21:27:05;972.0;;;24.2;56.8
51227;BME280;42714;48.260;10.980;2023-06-26T21:32:06;972.0;;;24.2;54.7
51227;BME280;42714;48.260;10.980;2023-06-26T21:37:07;972.1;;;24.1;56.1
51227;BME280;42714;48.260;10.980;2023-06-26T21:42:08;972.2;;;24.1;54.2
51227;BME280;42714;48.260;10.980;2023-06-26T21:47:09;972.3;;;24.0;50.0
51227;BME280;42714;48.260;10.980;2023-06-26T21:52:10;972.4;;;23.9;49.4
51227;BME280;42714;48.260;10.980;2023-06-26T21:57:11;972.4;;;23.9;47.4
51227;BME280;42714;48.260;10.980;2023-06-26T22:02:12;972.5;;;23.7;48.5
51227;BME280;42714;48.260;10.980;2023-06-26T22:07:13;972.5;;;23.6;48.4
51227;BME280;42714;48.260;10.980;2023-06-26T22:12:14;972.5;;;23.5;47.3
51227;BME280;42714;48.260;10.980;2023-06-26T22:17:15;972.5;;;23.4;46.6
51227;BME280;42714;48.260;10.980;2023-06-26T22:22:16;972.5;;;23.3;46.6
51227;BME280;42714;48.260;10.980;2023-06-26T22:27:17;972.6;;;23.2;45.8
51227;BME280;42714;48.260;10.980;2023-06-26T22:32:18;972.6;;;23.1;46.6
51227;BME280;42714;48.260;10.980;2023-06-26T22:37:19;972.6;;;23.0;45.3
51227;BME280;42714;48.260;10.980;2023-06-26T22:42:20;972.7;;;22.9;45.7
51227;BME280;42714;48.260;10.980;2023-06-26T22:47:21;972.7;;;22.9;45.3
51227;BME280;42714;48.260;10.980;2023-06-26T22:52:22;972.8;;;22.7;45.7
51227;BME280;42714;48.260;10.980;2023-06-26T22:57:23;972.8;;;22.5;46.5
51227;BME280;42714;48.260;10.980;2023-06-26T23:02:24;972.8;;;22.4;46.7
51227;BME280;42714;48.260;10.980;2023-06-26T23:07:25;972.8;;;22.3;47.2
51227;BME280;42714;48.260;10.980;2023-06-26T23:12:26;972.8;;;22.3;47.8
51227;BME280;42714;48.260;10.980;2023-06-26T23:17:27;972.8;;;22.2;47.9
51227;BME280;42714;48.260;10.980;2023-06-26T23:22:28;972.8;;;22.1;49.1
51227;BME280;42714;48.260;10.980;2023-06-26T23:27:29;972.8;;;22.0;49.3
51227;BME280;42714;48.260;10.980;2023-06-26T23:32:30;972.9;;;22.0;50.2
51227;BME280;42714;48.260;10.980;2023-06-26T23:37:31;972.9;;;22.0;50.5
51227;BME280;42714;48.260;10.980;2023-06-26T23:42:32;972.9;;;21.9;50.3
51227;BME280;42714;48.260;10.980;2023-06-26T23:47:33;972.9;;;21.8;50.6
51227;BME280;42714;48.260;10.980;2023-06-26T23:52:34;972.9;;;21.6;51.3
51227;BME280;42714;48.260;10.980;2023-06-26T23:57:35;972.9;;;21.7;51.6
